Time;durP1;ratioP1;P1;durP2;ratioP2;P2;SDS_P1;SDS_P2;PMS_P1;PMS_P2;Temp;Humidity;BMP_temperature;BMP_pressure;BME280_temperature;BME280_humidity;BME280_pressure;Samples;Min_cycle;Max_cycle;Signal;HPM_P1;HPM_P2
2022/04/08 00:01:22;;;;;;;3.00;1.52;;;;;;;;;;5008151;28;20619;-73
2022/04/08 00:03:48;;;;;;;4.90;1.73;;;;;;;;;;5007078;28;20044;-74
2022/04/08 00:06:14;;;;;;;4.50;1.40;;;;;;;;;;5003630;28;20026;-73
2022/04/08 00:08:40;;;;;;;6.10;1.85;;;;;;;;;;5004197;28;20053;-73
2022/04/08 00:11:06;;;;;;;4.07;1.50;;;;;;;;;;5000535;28;20032;-73
2022/04/08 00:13:32;;;;;;;4.53;1.48;;;;;;;;;;4998755;28;20101;-74
2022/04/08 00:15:58;;;;;;;3.25;1.52;;;;;;;;;;5001897;28;20034;-74
2022/04/08 00:18:24;;;;;;;6.25;1.83;;;;;;;;;;5005240;28;20058;-73
2022/04/08 00:20:50;;;;;;;4.22;1.35;;;;;;;;;;5001393;28;20040;-73
2022/04/08 00:23:16;;;;;;;7.28;2.15;;;;;;;;;;5004682;28;20026;-73
2022/04/08 00:25:42;;;;;;;4.50;1.42;;;;;;;;;;5003243;28;20022;-73
2022/04/08 00:28:08;;;;;;;3.05;1.73;;;;;;;;;;5002074;28;20209;-73
2022/04/08 00:30:34;;;;;;;5.55;1.90;;;;;;;;;;5008107;28;20120;-73
2022/04/08 00:33:00;;;;;;;7.70;2.00;;;;;;;;;;5005840;28;20025;-74
2022/04/08 00:35:26;;;;;;;6.38;2.13;;;;;;;;;;5003579;28;20527;-73
2022/04/08 00:37:52;;;;;;;3.60;2.00;;;;;;;;;;5008951;28;20038;-74
2022/04/08 00:40:18;;;;;;;5.97;2.25;;;;;;;;;;5002843;28;20092;-74
2022/04/08 00:42:44;;;;;;;5.30;2.50;;;;;;;;;;5004687;28;20032;-73
2022/04/08 00:45:10;;;;;;;6.88;2.88;;;;;;;;;;5005314;28;20030;-73
2022/04/08 00:47:37;;;;;;;5.70;2.40;;;;;;;;;;5005874;28;20034;-73
2022/04/08 00:50:07;;;;;;;6.68;2.00;;;;;;;;;;5005132;28;20073;-73
2022/04/08 00:52:33;;;;;;;7.07;2.15;;;;;;;;;;5006722;28;20026;-74
2022/04/08 00:55:00;;;;;;;9.23;2.30;;;;;;;;;;5006017;28;20061;-73
2022/04/08 00:57:26;;;;;;;4.93;1.95;;;;;;;;;;5003042;28;20083;-74
2022/04/08 00:59:52;;;;;;;4.50;1.80;;;;;;;;;;5006306;28;20732;-73
2022/04/08 01:02:18;;;;;;;3.05;1.40;;;;;;;;;;4997270;28;20137;-73
2022/04/08 01:04:44;;;;;;;4.93;2.10;;;;;;;;;;5005907;28;20485;-74
2022/04/08 01:07:10;;;;;;;3.25;1.85;;;;;;;;;;4998620;28;20460;-73
2022/04/08 01:09:36;;;;;;;3.72;1.40;;;;;;;;;;5002518;28;20057;-73
2022/04/08 01:12:02;;;;;;;3.78;1.77;;;;;;;;;;5007325;28;20017;-73
2022/04/08 01:14:28;;;;;;;3.75;1.45;;;;;;;;;;5003452;28;20029;-73
2022/04/08 01:16:54;;;;;;;1.95;1.17;;;;;;;;;;5001894;28;20384;-72
2022/04/08 01:19:20;;;;;;;3.60;1.20;;;;;;;;;;5003714;28;20037;-73
2022/04/08 01:21:46;;;;;;;5.00;1.30;;;;;;;;;;4998052;28;20031;-74
2022/04/08 01:24:14;;;;;;;4.10;1.20;;;;;;;;;;5000955;28;20037;-74
2022/04/08 01:26:41;;;;;;;2.58;1.10;;;;;;;;;;5000764;28;20026;-73
2022/04/08 01:29:07;;;;;;;2.53;1.08;;;;;;;;;;5008790;28;20265;-73
2022/04/08 01:31:33;;;;;;;4.45;1.30;;;;;;;;;;5008723;28;20022;-73
2022/04/08 01:33:59;;;;;;;0.82;0.80;;;;;;;;;;5000400;28;20034;-73
2022/04/08 01:36:25;;;;;;;4.13;1.17;;;;;;;;;;5004854;28;20026;-74
2022/04/08 01:38:51;;;;;;;5.95;1.67;;;;;;;;;;5002841;28;20033;-73
2022/04/08 01:41:17;;;;;;;4.28;1.38;;;;;;;;;;5006917;28;20034;-74
2022/04/08 01:43:44;;;;;;;2.53;1.30;;;;;;;;;;4999163;28;20611;-74
2022/04/08 01:46:10;;;;;;;5.07;1.38;;;;;;;;;;5007726;28;20034;-73
2022/04/08 01:48:36;;;;;;;1.60;1.30;;;;;;;;;;5003318;28;20326;-73
2022/04/08 01:51:02;;;;;;;4.68;1.40;;;;;;;;;;5012920;28;20031;-74
2022/04/08 01:53:28;;;;;;;3.35;1.00;;;;;;;;;;5011028;28;20487;-73
2022/04/08 01:55:55;;;;;;;3.95;1.10;;;;;;;;;;5006326;28;20029;-72
2022/04/08 01:58:20;;;;;;;6.25;1.38;;;;;;;;;;5005829;28;20469;-73
2022/04/08 02:00:46;;;;;;;4.63;1.42;;;;;;;;;;5000924;28;20113;-73
2022/04/08 02:03:12;;;;;;;3.05;1.27;;;;;;;;;;5002213;28;20105;-73
2022/04/08 02:05:38;;;;;;;1.95;1.25;;;;;;;;;;5004225;28;20084;-73
2022/04/08 02:08:04;;;;;;;2.75;1.50;;;;;;;;;;4994200;28;20049;-73
2022/04/08 02:10:30;;;;;;;3.55;1.60;;;;;;;;;;5005947;28;20121;-74
2022/04/08 02:12:56;;;;;;;3.75;1.35;;;;;;;;;;5006490;28;20104;-73
2022/04/08 02:15:27;;;;;;;1.58;1.15;;;;;;;;;;4996311;28;20084;-73
2022/04/08 02:17:53;;;;;;;6.72;1.45;;;;;;;;;;4997809;28;20033;-73
2022/04/08 02:20:19;;;;;;;4.95;1.20;;;;;;;;;;5001507;28;20042;-74
2022/04/08 02:22:45;;;;;;;4.97;1.50;;;;;;;;;;4997588;28;20030;-73
2022/04/08 02:25:11;;;;;;;6.55;1.38;;;;;;;;;;5000532;28;20168;-73
2022/04/08 02:27:38;;;;;;;4.68;1.30;;;;;;;;;;4999426;28;20523;-73
2022/04/08 02:30:04;;;;;;;3.75;1.20;;;;;;;;;;5003432;28;20030;-73
2022/04/08 02:32:30;;;;;;;7.50;1.23;;;;;;;;;;5004636;28;20096;-74
2022/04/08 02:34:56;;;;;;;3.47;1.10;;;;;;;;;;5004138;28;20030;-73
2022/04/08 02:37:22;;;;;;;6.55;1.05;;;;;;;;;;4998937;28;20477;-73
2022/04/08 02:39:47;;;;;;;4.00;1.20;;;;;;;;;;5000137;28;20473;-73
2022/04/08 02:42:13;;;;;;;4.45;1.20;;;;;;;;;;5003117;28;20030;-73
2022/04/08 02:44:39;;;;;;;4.35;1.00;;;;;;;;;;5002402;28;20022;-73
2022/04/08 02:47:05;;;;;;;5.43;1.40;;;;;;;;;;5006749;28;20077;-73
2022/04/08 02:49:31;;;;;;;1.77;0.93;;;;;;;;;;4996444;28;20240;-73
2022/04/08 02:51:57;;;;;;;2.03;1.45;;;;;;;;;;5004553;28;20061;-73
2022/04/08 02:54:23;;;;;;;3.97;1.20;;;;;;;;;;5002352;28;20018;-73
2022/04/08 02:56:49;;;;;;;1.70;0.98;;;;;;;;;;5001254;28;20068;-73
2022/04/08 02:59:15;;;;;;;2.25;1.10;;;;;;;;;;5002876;28;20033;-73
2022/04/08 03:01:41;;;;;;;3.72;1.38;;;;;;;;;;5004308;28;20022;-74
2022/04/08 03:04:08;;;;;;;3.03;1.02;;;;;;;;;;5002807;28;20033;-73
2022/04/08 03:06:34;;;;;;;5.20;1.30;;;;;;;;;;5001531;28;20410;-73
2022/04/08 03:09:00;;;;;;;2.60;1.35;;;;;;;;;;4997955;28;20046;-73
2022/04/08 03:11:27;;;;;;;4.10;1.10;;;;;;;;;;5005358;28;20046;-73
2022/04/08 03:13:53;;;;;;;12.93;1.88;;;;;;;;;;5004375;28;20029;-73
2022/04/08 03:16:19;;;;;;;3.67;1.20;;;;;;;;;;4997793;28;20719;-73
2022/04/08 03:18:48;;;;;;;8.75;1.40;;;;;;;;;;5002638;28;20153;-73
2022/04/08 03:21:14;;;;;;;2.53;1.20;;;;;;;;;;5003217;28;20029;-73
2022/04/08 03:23:40;;;;;;;6.03;1.10;;;;;;;;;;5006232;28;20022;-73
2022/04/08 03:26:06;;;;;;;2.45;1.00;;;;;;;;;;4998633;28;20176;-73
2022/04/08 03:28:32;;;;;;;4.10;1.23;;;;;;;;;;4998494;28;20034;-74
2022/04/08 03:30:58;;;;;;;3.92;0.95;;;;;;;;;;5004347;28;20530;-73
2022/04/08 03:33:24;;;;;;;2.67;1.05;;;;;;;;;;4999198;28;20033;-73
2022/04/08 03:35:50;;;;;;;2.72;1.10;;;;;;;;;;5002930;28;20034;-74
2022/04/08 03:38:16;;;;;;;1.25;0.98;;;;;;;;;;5005102;28;20058;-73
2022/04/08 03:40:42;;;;;;;2.28;0.90;;;;;;;;;;5006652;28;20036;-73
2022/04/08 03:43:08;;;;;;;2.70;1.00;;;;;;;;;;5003550;28;20296;-73
2022/04/08 03:45:34;;;;;;;3.78;1.00;;;;;;;;;;5004644;28;20065;-73
2022/04/08 03:48:00;;;;;;;1.88;0.80;;;;;;;;;;5008676;28;20029;-73
2022/04/08 03:50:26;;;;;;;6.10;1.50;;;;;;;;;;5002084;28;20041;-73
2022/04/08 03:52:51;;;;;;;3.85;1.10;;;;;;;;;;5004133;28;20477;-73
2022/04/08 03:55:17;;;;;;;3.20;1.40;;;;;;;;;;5002419;28;20084;-73
2022/04/08 03:57:43;;;;;;;3.03;1.17;;;;;;;;;;5004075;28;20038;-73
2022/04/08 04:00:09;;;;;;;1.33;0.80;;;;;;;;;;5005925;28;20034;-73
2022/04/08 04:02:35;;;;;;;2.00;1.20;;;;;;;;;;5004430;28;20435;-73
2022/04/08 04:05:02;;;;;;;2.47;0.93;;;;;;;;;;5002999;28;20029;-73
2022/04/08 04:07:28;;;;;;;3.20;1.45;;;;;;;;;;4998408;28;20069;-74
2022/04/08 04:09:54;;;;;;;3.03;1.15;;;;;;;;;;5003835;28;20069;-72
2022/04/08 04:12:20;;;;;;;1.08;0.80;;;;;;;;;;5006246;28;20029;-74
2022/04/08 04:14:46;;;;;;;2.00;0.93;;;;;;;;;;5006738;28;20409;-73
2022/04/08 04:17:12;;;;;;;1.85;0.75;;;;;;;;;;5008077;28;20133;-74
2022/04/08 04:19:38;;;;;;;1.85;0.90;;;;;;;;;;5004842;28;20121;-74
2022/04/08 04:22:04;;;;;;;2.65;0.95;;;;;;;;;;5002745;28;20045;-72
2022/04/08 04:24:30;;;;;;;1.13;0.75;;;;;;;;;;5002781;28;20034;-73
2022/04/08 04:26:56;;;;;;;2.58;0.90;;;;;;;;;;5008652;28;20040;-74
2022/04/08 04:29:22;;;;;;;0.93;0.52;;;;;;;;;;5006181;28;20033;-73
2022/04/08 04:31:48;;;;;;;2.67;0.77;;;;;;;;;;5009169;28;20021;-76
2022/04/08 04:34:14;;;;;;;1.42;0.88;;;;;;;;;;5006180;28;20053;-71
2022/04/08 04:36:40;;;;;;;2.13;0.77;;;;;;;;;;4998969;28;20025;-70
2022/04/08 04:39:06;;;;;;;1.23;0.82;;;;;;;;;;5002649;28;20412;-71
2022/04/08 04:41:32;;;;;;;3.08;0.60;;;;;;;;;;5003542;28;20530;-72
2022/04/08 04:43:58;;;;;;;6.20;1.08;;;;;;;;;;5000613;28;20046;-72
2022/04/08 04:46:24;;;;;;;6.95;0.90;;;;;;;;;;5003547;28;20697;-72
2022/04/08 04:48:50;;;;;;;1.80;0.88;;;;;;;;;;4998184;28;20034;-72
2022/04/08 04:51:16;;;;;;;3.45;0.80;;;;;;;;;;5008283;28;20033;-72
2022/04/08 04:53:42;;;;;;;6.53;0.90;;;;;;;;;;5009066;28;20455;-73
2022/04/08 04:56:08;;;;;;;3.65;1.08;;;;;;;;;;5002433;28;20554;-72
2022/04/08 04:58:34;;;;;;;1.67;0.80;;;;;;;;;;5019597;28;20125;-72
2022/04/08 05:01:00;;;;;;;8.88;1.42;;;;;;;;;;5017910;28;20037;-71
2022/04/08 05:03:26;;;;;;;3.92;1.13;;;;;;;;;;5007540;28;20104;-71
2022/04/08 05:05:53;;;;;;;4.70;1.20;;;;;;;;;;5007939;28;20052;-72
2022/04/08 05:08:20;;;;;;;3.10;1.02;;;;;;;;;;5004559;28;20046;-72
2022/04/08 05:10:46;;;;;;;3.70;0.88;;;;;;;;;;5001699;28;20030;-73
2022/04/08 05:13:12;;;;;;;5.00;1.08;;;;;;;;;;5008793;28;20022;-71
2022/04/08 05:15:42;;;;;;;4.28;1.00;;;;;;;;;;4999926;28;20469;-72
2022/04/08 05:18:08;;;;;;;6.05;1.23;;;;;;;;;;5008170;28;20520;-72
2022/04/08 05:20:34;;;;;;;4.85;1.20;;;;;;;;;;5001493;28;20038;-71
2022/04/08 05:23:00;;;;;;;4.47;1.35;;;;;;;;;;5011418;28;20593;-71
2022/04/08 05:25:26;;;;;;;1.50;0.90;;;;;;;;;;5010134;28;20770;-71
2022/04/08 05:27:53;;;;;;;7.03;1.77;;;;;;;;;;5008240;28;20057;-71
2022/04/08 05:30:19;;;;;;;2.15;1.10;;;;;;;;;;4997176;28;20041;-71
2022/04/08 05:32:49;;;;;;;2.63;1.20;;;;;;;;;;5004352;28;20048;-72
2022/04/08 05:35:15;;;;;;;3.70;1.20;;;;;;;;;;5003822;28;20112;-72
2022/04/08 05:37:45;;;;;;;4.32;1.10;;;;;;;;;;4997977;28;20025;-71
2022/04/08 05:40:12;;;;;;;3.72;1.50;;;;;;;;;;4999557;28;20110;-71
2022/04/08 05:42:45;;;;;;;3.90;1.55;;;;;;;;;;5006926;28;20064;-72
2022/04/08 05:45:12;;;;;;;4.07;1.40;;;;;;;;;;5008511;28;20026;-77
2022/04/08 05:47:39;;;;;;;4.85;1.75;;;;;;;;;;5007373;28;20052;-73
2022/04/08 05:50:05;;;;;;;3.25;1.50;;;;;;;;;;5004773;28;20065;-73
2022/04/08 05:52:31;;;;;;;4.22;1.80;;;;;;;;;;5001493;28;20096;-73
2022/04/08 05:54:57;;;;;;;4.03;1.60;;;;;;;;;;5000332;28;20113;-72
2022/04/08 05:57:23;;;;;;;3.28;1.42;;;;;;;;;;5003849;28;20018;-73
2022/04/08 05:59:50;;;;;;;2.50;1.05;;;;;;;;;;5008899;28;20036;-73
2022/04/08 06:02:16;;;;;;;6.95;1.48;;;;;;;;;;5004903;28;20057;-74
2022/04/08 06:04:42;;;;;;;3.13;1.20;;;;;;;;;;4996654;28;20248;-73
2022/04/08 06:07:08;;;;;;;5.45;1.30;;;;;;;;;;5005719;28;20035;-73
2022/04/08 06:09:34;;;;;;;4.22;1.10;;;;;;;;;;5002608;28;20128;-73
2022/04/08 06:12:00;;;;;;;3.30;1.35;;;;;;;;;;5007913;28;20397;-73
2022/04/08 06:14:27;;;;;;;4.88;1.08;;;;;;;;;;5004084;28;20116;-73
2022/04/08 06:16:53;;;;;;;2.95;1.10;;;;;;;;;;5003978;28;20110;-73
2022/04/08 06:19:19;;;;;;;1.75;1.00;;;;;;;;;;5000020;28;20053;-73
2022/04/08 06:21:45;;;;;;;6.32;1.38;;;;;;;;;;5006776;28;20041;-74
2022/04/08 06:24:11;;;;;;;4.05;1.08;;;;;;;;;;5003681;28;20081;-73
2022/04/08 06:26:38;;;;;;;2.00;0.93;;;;;;;;;;5007178;28;20509;-73
2022/04/08 06:29:04;;;;;;;3.03;0.88;;;;;;;;;;5003671;28;20074;-73
2022/04/08 06:31:30;;;;;;;3.05;1.00;;;;;;;;;;5002822;28;20096;-75
2022/04/08 06:34:00;;;;;;;6.18;1.00;;;;;;;;;;5005618;28;20026;-76
2022/04/08 06:36:26;;;;;;;2.85;1.25;;;;;;;;;;5009031;28;20018;-75
2022/04/08 06:38:52;;;;;;;3.28;1.13;;;;;;;;;;5002143;28;20496;-76
2022/04/08 06:41:18;;;;;;;3.13;0.77;;;;;;;;;;5006591;28;20030;-76
2022/04/08 06:43:44;;;;;;;4.75;1.23;;;;;;;;;;5004803;28;20030;-75
2022/04/08 06:46:10;;;;;;;3.53;1.10;;;;;;;;;;5009211;28;20270;-74
2022/04/08 06:48:36;;;;;;;2.78;0.93;;;;;;;;;;5017041;28;20465;-73
2022/04/08 06:51:04;;;;;;;5.78;1.33;;;;;;;;;;5000995;28;20026;-75
2022/04/08 06:53:30;;;;;;;3.35;1.20;;;;;;;;;;5008361;28;20136;-75
2022/04/08 06:55:56;;;;;;;4.55;1.40;;;;;;;;;;5002248;28;20033;-76
2022/04/08 06:58:26;;;;;;;4.35;0.93;;;;;;;;;;5006500;28;20384;-76
2022/04/08 07:00:52;;;;;;;5.82;1.20;;;;;;;;;;5006602;28;20030;-75
2022/04/08 07:03:21;;;;;;;2.90;0.90;;;;;;;;;;5005505;28;20369;-76
2022/04/08 07:05:47;;;;;;;8.38;1.10;;;;;;;;;;5004155;28;20366;-75
2022/04/08 07:08:13;;;;;;;4.65;1.60;;;;;;;;;;5003256;28;20057;-74
2022/04/08 07:10:39;;;;;;;2.20;1.30;;;;;;;;;;5006920;28;20029;-74
2022/04/08 07:13:08;;;;;;;11.25;1.60;;;;;;;;;;5005300;28;20087;-74
2022/04/08 07:15:34;;;;;;;11.55;1.60;;;;;;;;;;5002932;28;20500;-74
2022/04/08 07:18:00;;;;;;;2.42;0.93;;;;;;;;;;4999150;28;20026;-74
2022/04/08 07:20:26;;;;;;;4.32;1.45;;;;;;;;;;5007009;28;20026;-74
2022/04/08 07:22:53;;;;;;;4.28;1.50;;;;;;;;;;5003834;28;20041;-72
2022/04/08 07:25:19;;;;;;;6.78;2.03;;;;;;;;;;5005657;28;20038;-73
2022/04/08 07:27:49;;;;;;;8.38;1.55;;;;;;;;;;5006664;28;20029;-73
2022/04/08 07:30:17;;;;;;;6.00;1.45;;;;;;;;;;5008054;28;20026;-73
2022/04/08 07:32:43;;;;;;;8.38;1.17;;;;;;;;;;5018888;28;20030;-76
2022/04/08 07:35:10;;;;;;;4.95;1.50;;;;;;;;;;5011525;28;20036;-74
2022/04/08 07:37:36;;;;;;;7.57;1.83;;;;;;;;;;5005321;28;20484;-76
2022/04/08 07:40:05;;;;;;;9.23;1.50;;;;;;;;;;5003400;28;20037;-74
2022/04/08 07:42:31;;;;;;;4.85;1.95;;;;;;;;;;5018346;28;20026;-75
2022/04/08 07:44:56;;;;;;;5.03;1.45;;;;;;;;;;5015369;28;20044;-75
2022/04/08 07:47:27;;;;;;;8.15;1.70;;;;;;;;;;5006906;28;20388;-75
2022/04/08 07:49:56;;;;;;;5.57;1.30;;;;;;;;;;5001230;28;20092;-75
2022/04/08 07:52:21;;;;;;;11.90;1.50;;;;;;;;;;5008138;28;20022;-75
2022/04/08 07:54:47;;;;;;;11.63;1.95;;;;;;;;;;5007538;28;20669;-75
2022/04/08 07:57:13;;;;;;;4.40;1.38;;;;;;;;;;5008012;28;20040;-75
2022/04/08 07:59:39;;;;;;;12.00;2.10;;;;;;;;;;5015527;28;20030;-75
2022/04/08 08:02:05;;;;;;;7.60;1.50;;;;;;;;;;4999390;28;20041;-75
2022/04/08 08:04:31;;;;;;;8.80;1.45;;;;;;;;;;5009517;28;20041;-74
2022/04/08 08:06:57;;;;;;;7.60;1.70;;;;;;;;;;5011267;28;20080;-75
2022/04/08 08:09:23;;;;;;;8.25;1.92;;;;;;;;;;5008130;28;20046;-74
2022/04/08 08:11:49;;;;;;;5.75;1.35;;;;;;;;;;5010427;28;20041;-74
2022/04/08 08:14:15;;;;;;;12.73;1.50;;;;;;;;;;5000370;28;20117;-74
2022/04/08 08:16:41;;;;;;;3.95;1.50;;;;;;;;;;5015433;28;20018;-75
2022/04/08 08:19:07;;;;;;;7.30;1.30;;;;;;;;;;5005732;28;20101;-74
2022/04/08 08:21:33;;;;;;;9.18;1.60;;;;;;;;;;5011050;28;20030;-75
2022/04/08 08:23:59;;;;;;;7.25;1.27;;;;;;;;;;5016449;28;20120;-74
2022/04/08 08:26:25;;;;;;;8.07;1.63;;;;;;;;;;5013776;28;20041;-74
2022/04/08 08:28:52;;;;;;;7.03;1.27;;;;;;;;;;5006364;28;20089;-74
2022/04/08 08:31:17;;;;;;;15.90;1.77;;;;;;;;;;5000967;28;20109;-77
2022/04/08 08:33:43;;;;;;;9.43;1.55;;;;;;;;;;5012473;28;22085;-75
2022/04/08 08:36:10;;;;;;;11.05;1.38;;;;;;;;;;5008586;28;20022;-75
2022/04/08 08:38:42;;;;;;;10.13;1.52;;;;;;;;;;5006322;28;20022;-76
2022/04/08 08:41:08;;;;;;;6.40;1.63;;;;;;;;;;5014063;28;20432;-75
2022/04/08 08:43:35;;;;;;;9.25;1.58;;;;;;;;;;5002912;28;20440;-73
2022/04/08 08:46:02;;;;;;;7.57;1.67;;;;;;;;;;5009038;28;20030;-74
2022/04/08 08:48:30;;;;;;;11.52;1.50;;;;;;;;;;5006660;28;20669;-74
2022/04/08 08:51:00;;;;;;;8.77;1.13;;;;;;;;;;5009213;28;20034;-74
2022/04/08 08:53:29;;;;;;;9.02;1.23;;;;;;;;;;5010189;28;20676;-74
2022/04/08 08:55:55;;;;;;;20.80;1.75;;;;;;;;;;5006966;28;20046;-74
2022/04/08 08:58:21;;;;;;;10.45;1.90;;;;;;;;;;5004040;28;20053;-76
2022/04/08 09:00:47;;;;;;;12.85;1.85;;;;;;;;;;4998449;28;20521;-75
2022/04/08 09:03:13;;;;;;;11.32;2.00;;;;;;;;;;5003842;28;20034;-76
2022/04/08 09:05:42;;;;;;;7.63;1.65;;;;;;;;;;5011320;28;20185;-76
2022/04/08 09:08:11;;;;;;;9.13;1.90;;;;;;;;;;5000892;28;20065;-76
2022/04/08 09:10:37;;;;;;;10.57;1.65;;;;;;;;;;5005220;28;20037;-78
2022/04/08 09:13:04;;;;;;;13.52;1.50;;;;;;;;;;5009317;28;20132;-73
2022/04/08 09:15:30;;;;;;;8.18;1.40;;;;;;;;;;5011618;28;20030;-76
2022/04/08 09:18:13;;;;;;;7.15;1.20;;;;;;;;;;5005196;28;20378;-77
2022/04/08 09:20:40;;;;;;;15.93;1.73;;;;;;;;;;5004041;28;20168;-79
2022/04/08 09:23:07;;;;;;;8.30;1.30;;;;;;;;;;5004118;28;20037;-77
2022/04/08 09:25:33;;;;;;;7.30;1.35;;;;;;;;;;4996794;28;20386;-78
2022/04/08 09:28:05;;;;;;;9.00;1.63;;;;;;;;;;5007074;28;20033;-76
2022/04/08 09:30:31;;;;;;;11.10;1.60;;;;;;;;;;5007362;28;20053;-78
2022/04/08 09:32:59;;;;;;;7.28;1.48;;;;;;;;;;5006262;28;20485;-77
2022/04/08 09:35:25;;;;;;;17.95;1.63;;;;;;;;;;4998930;28;20022;-78
2022/04/08 09:38:01;;;;;;;5.65;1.20;;;;;;;;;;5005675;28;20122;-78
2022/04/08 09:40:37;;;;;;;5.20;1.20;;;;;;;;;;5006003;28;20026;-79
2022/04/08 09:43:03;;;;;;;14.88;1.45;;;;;;;;;;5003720;28;20192;-79
2022/04/08 09:45:33;;;;;;;7.35;1.48;;;;;;;;;;5004644;28;20040;-79
2022/04/08 09:48:01;;;;;;;6.28;1.45;;;;;;;;;;4999563;28;20537;-78
2022/04/08 09:50:28;;;;;;;6.22;1.80;;;;;;;;;;5003205;28;20035;-79
2022/04/08 09:52:54;;;;;;;5.32;1.98;;;;;;;;;;5005371;28;20762;-79
2022/04/08 09:55:22;;;;;;;9.90;1.80;;;;;;;;;;4999601;28;20033;-78
2022/04/08 09:57:49;;;;;;;9.73;1.92;;;;;;;;;;5000483;28;20026;-79
2022/04/08 10:00:15;;;;;;;5.05;1.55;;;;;;;;;;5006246;28;20034;-78
2022/04/08 10:02:42;;;;;;;7.18;1.83;;;;;;;;;;4996061;28;20036;-79
2022/04/08 10:05:09;;;;;;;13.93;1.52;;;;;;;;;;4996719;28;20149;-78
2022/04/08 10:07:36;;;;;;;4.43;1.30;;;;;;;;;;5003558;28;20520;-78
2022/04/08 10:10:09;;;;;;;4.53;1.25;;;;;;;;;;5003358;28;20536;-79
2022/04/08 10:12:47;;;;;;;6.13;1.27;;;;;;;;;;4999820;28;20033;-78
2022/04/08 10:15:33;;;;;;;5.93;1.42;;;;;;;;;;5008399;28;20033;-78
2022/04/08 10:18:00;;;;;;;9.05;1.20;;;;;;;;;;4999019;28;20560;-79
2022/04/08 10:20:28;;;;;;;5.32;1.30;;;;;;;;;;5005665;28;20480;-78
2022/04/08 10:23:04;;;;;;;5.32;1.10;;;;;;;;;;5004315;28;20038;-78
2022/04/08 10:25:35;;;;;;;4.82;1.30;;;;;;;;;;5005210;28;20038;-78
2022/04/08 10:28:01;;;;;;;4.10;1.27;;;;;;;;;;5008032;28;20053;-78
2022/04/08 10:30:27;;;;;;;5.22;1.30;;;;;;;;;;5007674;28;20085;-79
2022/04/08 10:32:59;;;;;;;4.28;1.33;;;;;;;;;;5009096;28;20489;-79
2022/04/08 10:35:25;;;;;;;4.97;1.55;;;;;;;;;;5007835;28;20034;-78
2022/04/08 10:37:55;;;;;;;4.25;1.30;;;;;;;;;;5009169;28;20113;-78
2022/04/08 10:40:21;;;;;;;5.03;1.55;;;;;;;;;;5008474;28;20061;-78
2022/04/08 10:42:58;;;;;;;7.57;1.10;;;;;;;;;;5007326;28;20042;-79
2022/04/08 10:45:24;;;;;;;6.13;1.00;;;;;;;;;;5007494;28;20117;-79
2022/04/08 10:47:50;;;;;;;1.95;1.00;;;;;;;;;;5007472;28;20109;-80
2022/04/08 10:50:30;;;;;;;4.00;1.30;;;;;;;;;;5002610;28;20026;-80
2022/04/08 10:53:13;;;;;;;5.72;1.05;;;;;;;;;;5006349;28;20117;-80
2022/04/08 10:55:48;;;;;;;6.97;1.30;;;;;;;;;;5023228;28;20128;-80
2022/04/08 10:58:15;;;;;;;3.67;0.98;;;;;;;;;;5007684;28;20029;-79
2022/04/08 11:00:41;;;;;;;2.10;1.00;;;;;;;;;;4997765;28;20069;-79
2022/04/08 11:03:11;;;;;;;4.60;1.30;;;;;;;;;;5006091;28;20076;-79
2022/04/08 11:05:38;;;;;;;2.88;1.10;;;;;;;;;;4996075;28;20030;-79
2022/04/08 11:08:05;;;;;;;2.53;1.13;;;;;;;;;;5009948;28;20042;-79
2022/04/08 11:10:31;;;;;;;4.75;1.30;;;;;;;;;;5008364;28;20054;-80
2022/04/08 11:13:00;;;;;;;4.60;1.10;;;;;;;;;;4993279;28;21577;-80
2022/04/08 11:15:30;;;;;;;5.63;1.48;;;;;;;;;;5008781;28;20041;-81
2022/04/08 11:17:58;;;;;;;2.60;1.00;;;;;;;;;;5010942;28;20108;-79
2022/04/08 11:20:24;;;;;;;8.23;1.40;;;;;;;;;;4996410;28;20448;-80
2022/04/08 11:22:52;;;;;;;4.28;1.23;;;;;;;;;;4998794;28;20038;-79
2022/04/08 11:25:24;;;;;;;4.07;1.00;;;;;;;;;;5014905;28;20542;-79
2022/04/08 11:28:02;;;;;;;4.00;1.50;;;;;;;;;;5009981;28;20034;-79
2022/04/08 11:30:29;;;;;;;5.22;1.30;;;;;;;;;;5005123;28;20373;-79
2022/04/08 11:32:55;;;;;;;3.42;1.17;;;;;;;;;;5001216;28;20076;-78
2022/04/08 11:35:21;;;;;;;5.63;1.27;;;;;;;;;;5004444;28;20080;-79
2022/04/08 11:37:49;;;;;;;2.53;1.00;;;;;;;;;;5007042;28;20097;-79
2022/04/08 11:40:17;;;;;;;3.05;1.27;;;;;;;;;;5004954;28;20026;-80
2022/04/08 11:42:44;;;;;;;3.65;1.27;;;;;;;;;;5004086;28;20299;-79
2022/04/08 11:45:11;;;;;;;5.80;1.20;;;;;;;;;;5009789;28;20057;-79
2022/04/08 11:47:40;;;;;;;3.47;1.15;;;;;;;;;;5002851;28;20029;-79
2022/04/08 11:50:07;;;;;;;6.57;1.38;;;;;;;;;;5002837;28;20485;-79
2022/04/08 11:52:34;;;;;;;2.85;0.98;;;;;;;;;;5005446;28;20049;-78
2022/04/08 11:55:08;;;;;;;7.80;1.40;;;;;;;;;;5001701;28;20223;-79
2022/04/08 11:57:35;;;;;;;3.95;1.45;;;;;;;;;;5005827;28;20026;-78
2022/04/08 12:00:04;;;;;;;4.05;1.13;;;;;;;;;;5002769;28;20396;-79
2022/04/08 12:02:31;;;;;;;4.60;1.10;;;;;;;;;;5006530;28;20075;-78
2022/04/08 12:04:57;;;;;;;4.53;1.10;;;;;;;;;;5003671;28;20037;-78
2022/04/08 12:07:24;;;;;;;4.80;0.98;;;;;;;;;;5005614;28;20022;-78
2022/04/08 12:09:51;;;;;;;5.45;1.30;;;;;;;;;;5001587;28;20081;-78
2022/04/08 12:12:28;;;;;;;3.42;1.30;;;;;;;;;;5001524;28;20057;-79
2022/04/08 12:14:54;;;;;;;4.68;1.38;;;;;;;;;;5002345;28;20034;-79
2022/04/08 12:17:20;;;;;;;3.75;1.33;;;;;;;;;;5000751;28;20447;-79
2022/04/08 12:19:51;;;;;;;6.03;1.20;;;;;;;;;;4992259;28;20066;-81
2022/04/08 12:22:17;;;;;;;3.75;1.45;;;;;;;;;;5004735;28;20072;-80
2022/04/08 12:24:43;;;;;;;7.05;1.30;;;;;;;;;;4998000;28;20034;-80
2022/04/08 12:27:17;;;;;;;5.10;1.10;;;;;;;;;;5009498;28;20491;-80
2022/04/08 12:29:45;;;;;;;3.78;1.10;;;;;;;;;;5009688;28;20034;-80
2022/04/08 12:32:15;;;;;;;5.22;1.42;;;;;;;;;;5011508;28;20609;-79
2022/04/08 12:34:42;;;;;;;3.90;1.20;;;;;;;;;;5000705;28;20037;-80
2022/04/08 12:37:08;;;;;;;5.68;2.40;;;;;;;;;;5004848;28;20027;-79
2022/04/08 12:39:34;;;;;;;5.10;1.67;;;;;;;;;;5006261;28;20037;-79
2022/04/08 12:42:01;;;;;;;4.55;1.35;;;;;;;;;;5008652;28;20164;-79
2022/04/08 12:44:27;;;;;;;6.97;1.50;;;;;;;;;;5001474;28;20120;-78
2022/04/08 12:46:55;;;;;;;6.57;1.10;;;;;;;;;;5009755;28;20125;-79
2022/04/08 12:49:21;;;;;;;3.20;1.00;;;;;;;;;;5006588;28;20579;-80
2022/04/08 12:51:47;;;;;;;4.57;1.20;;;;;;;;;;5008922;28;20116;-81
2022/04/08 12:54:13;;;;;;;5.43;1.30;;;;;;;;;;5009505;28;20537;-79
2022/04/08 12:56:39;;;;;;;3.05;1.50;;;;;;;;;;5007043;28;20030;-79
2022/04/08 12:59:05;;;;;;;2.10;1.23;;;;;;;;;;5010020;28;20030;-79
2022/04/08 13:01:31;;;;;;;6.10;1.63;;;;;;;;;;5014867;28;20030;-79
2022/04/08 13:03:57;;;;;;;9.48;1.65;;;;;;;;;;5006940;28;20564;-79
2022/04/08 13:06:23;;;;;;;4.80;1.60;;;;;;;;;;5008374;28;20489;-79
2022/04/08 13:08:49;;;;;;;5.63;1.50;;;;;;;;;;5010004;28;20044;-80
2022/04/08 13:11:15;;;;;;;4.60;1.48;;;;;;;;;;5007468;28;20026;-80
2022/04/08 13:13:41;;;;;;;4.72;1.42;;;;;;;;;;5014952;28;20064;-79
2022/04/08 13:16:07;;;;;;;5.63;1.50;;;;;;;;;;5006263;28;20054;-78
2022/04/08 13:18:33;;;;;;;5.20;1.60;;;;;;;;;;5005764;28;20084;-78
2022/04/08 13:20:59;;;;;;;8.27;1.88;;;;;;;;;;5003380;28;20068;-79
2022/04/08 13:23:25;;;;;;;3.42;1.25;;;;;;;;;;5004582;28;20030;-79
2022/04/08 13:25:51;;;;;;;3.90;1.27;;;;;;;;;;5007006;28;20251;-78
2022/04/08 13:28:17;;;;;;;4.10;1.38;;;;;;;;;;5005829;28;20030;-80
2022/04/08 13:30:43;;;;;;;7.97;1.52;;;;;;;;;;5006315;28;20477;-81
2022/04/08 13:33:09;;;;;;;7.32;1.70;;;;;;;;;;5008024;28;20045;-82
2022/04/08 13:35:35;;;;;;;5.38;1.45;;;;;;;;;;5009845;28;20037;-78
2022/04/08 13:38:01;;;;;;;3.05;1.38;;;;;;;;;;5011175;28;20030;-81
2022/04/08 13:40:27;;;;;;;5.65;1.65;;;;;;;;;;5012182;28;20029;-79
2022/04/08 13:42:55;;;;;;;9.35;1.80;;;;;;;;;;5016207;28;20033;-77
2022/04/08 13:45:21;;;;;;;4.35;1.20;;;;;;;;;;5004870;28;20030;-73
2022/04/08 13:47:49;;;;;;;4.93;1.55;;;;;;;;;;5009324;28;20083;-73
2022/04/08 13:50:15;;;;;;;6.65;1.50;;;;;;;;;;5001805;28;20497;-73
2022/04/08 13:52:40;;;;;;;7.20;1.67;;;;;;;;;;5010101;28;20057;-74
2022/04/08 13:55:06;;;;;;;3.45;1.35;;;;;;;;;;5003945;28;20034;-74
2022/04/08 13:57:32;;;;;;;8.98;3.80;;;;;;;;;;4995574;28;20025;-73
2022/04/08 13:59:59;;;;;;;8.07;1.60;;;;;;;;;;5011193;28;20581;-73
2022/04/08 14:02:25;;;;;;;4.65;1.42;;;;;;;;;;5006589;28;20389;-72
2022/04/08 14:04:51;;;;;;;5.10;1.42;;;;;;;;;;5012434;28;20048;-73
2022/04/08 14:07:18;;;;;;;4.95;1.48;;;;;;;;;;5000781;28;20481;-73
2022/04/08 14:09:45;;;;;;;5.30;1.35;;;;;;;;;;5003374;28;20385;-74
2022/04/08 14:12:11;;;;;;;4.20;1.50;;;;;;;;;;5008499;28;20029;-74
2022/04/08 14:14:36;;;;;;;4.18;1.30;;;;;;;;;;4999005;28;20022;-74
2022/04/08 14:17:03;;;;;;;3.97;1.42;;;;;;;;;;5012990;28;20042;-75
2022/04/08 14:19:28;;;;;;;2.20;1.10;;;;;;;;;;5004049;28;20492;-73
2022/04/08 14:21:55;;;;;;;3.47;1.27;;;;;;;;;;5007064;28;20030;-74
2022/04/08 14:24:21;;;;;;;4.07;1.35;;;;;;;;;;5005149;28;20033;-73
2022/04/08 14:26:47;;;;;;;6.60;1.48;;;;;;;;;;4999193;28;20022;-75
2022/04/08 14:29:14;;;;;;;2.22;1.27;;;;;;;;;;5004838;28;20370;-76
2022/04/08 14:31:40;;;;;;;2.92;1.42;;;;;;;;;;5006151;28;20014;-73
2022/04/08 14:34:07;;;;;;;3.13;1.60;;;;;;;;;;5000602;28;20041;-74
2022/04/08 14:36:33;;;;;;;3.20;1.45;;;;;;;;;;5002774;28;20537;-74
2022/04/08 14:38:59;;;;;;;3.58;1.40;;;;;;;;;;5004644;28;20034;-75
2022/04/08 14:41:25;;;;;;;6.00;1.73;;;;;;;;;;5007908;28;20088;-75